Terminal Aerodrome Forecast
Issued by NWS

Home | Current Version | Previous Version | Text Only | Print | Product List | Glossary On
Versions: 1 2 3 4 5 6 7 8 9 10 11 12 13 14 15 16
000
FTUS42 KTAE 030527
TAFECP
TAF
KECP 030527Z 0306/0406 VRB05KT P6SM VCTS SCT025CB
     FM030900 VRB03KT P6SM FEW025 SCT120
     FM031400 20008KT P6SM SCT025
     FM031700 20008KT P6SM VCTS SCT030CB
     FM040200 VRB03KT P6SM SCT120=

USA.gov is the U.S. government's official web portal to all federal, state and local government web resources and services.